Elkton, VA (22827)

5:14 AM EDT on September 04, 2015 (GMT -0400)
Whispering Pines | | Change Station
CLOSE
Current Station
Personal Weather Station
Location: Elkton, VA
Elevation: 1026 ft
Nearby Weather Stations

Elev 1026 ft 38.41 °N, 78.61 °W | Updated 31 seconds ago

Partly Cloudy
Partly Cloudy
64.6 °F
Feels Like 64.6 °F
N
0.0
Wind Variable Wind from SE
Gusts 0.0 mph

Today
High -- | Low -- °F
--% Chance of Precip.
Yesterday
High -- | Low -- °F
Precip. -- in
6:46 AM 7:40 PM
Waning Gibbous, 61% visible
Pressure 30.03 in
Visibility 1.0 miles
Clouds Mostly Cloudy 300 ft
Dew Point 64 °F
Humidity 97%
Rainfall 0.00 in
Snow Depth Not available.
UV 0.0 out of 12
Pollen 9.80 out of 12
Air Quality Not available.
Flu Activity Not available.
METAR KSHD 040855Z AUTO 00000KT 1SM BR BKN003 19/18 A3003 RMK AO2 T01860178
Pressure 30.03 in
Visibility 1.0 miles
Clouds Mostly Cloudy 300 ft
Dew Point 64 °F
Humidity 97%
Rainfall 0.00 in
Snow Depth Not available.
UV 0.0 out of 12
Pollen 9.80 out of 12
Air Quality Not available.
Flu Activity Not available.
METAR KSHD 040855Z AUTO 00000KT 1SM BR BKN003 19/18 A3003 RMK AO2 T01860178
Nowcast | as of 5:12 am EDT on September 4, 2015

Patchy dense fog is expected across the Shenandoah Valley this morning. Visibilities of a half mile or less are possible at times. Use caution while driving especially on Interstate 81 in Virginia.

×

10-Day Weather Forecast

×

Almanac

Astronomy

Sep. 04, 2015 Rise Set
Actual Time
Civil Twilight
Nautical Twilight
Astronomical Twilight
Moon
Length of Visible Light
Length of Day
Tomorrow will be .
, % of the Moon is Illuminated

Today's Extremes

State Highs State Lows

Community

WunderPhotos

Upload Photos

1,852,142 photos uploaded!

WunderBlogs® & News

Nearby

Air Quality

  Air Quality AQ Index Pollutant
Not available.

Snow Depth

Station Depth Elevation

Earthquake Activity

City Distance Mag. Time & Date
Minimum magnitude displayed is 2.5.

Coastal Water Temperatures

Place Temperature

Stations

Nearby Weather Stations

Station Location Temp. Windchill Dew Point Humidity Wind Precip. Elev Updated Type